createdAt,value
2022-10-20T00:01:12.608Z,1.97
2022-10-20T00:04:14.491Z,2.73
2022-10-20T00:07:16.142Z,1.87
2022-10-20T00:10:17.892Z,2.53
2022-10-20T00:13:19.540Z,1.70
2022-10-20T00:16:22.331Z,1.87
2022-10-20T00:19:24.153Z,2.00
2022-10-20T00:22:25.802Z,2.07
2022-10-20T00:25:27.472Z,2.27
2022-10-20T00:28:29.369Z,2.27
2022-10-20T00:31:31.456Z,2.57
2022-10-20T00:34:33.532Z,2.40
2022-10-20T00:37:35.203Z,1.73
2022-10-20T00:40:36.867Z,2.20
2022-10-20T00:43:45.798Z,2.07
2022-10-20T00:46:47.622Z,2.10
2022-10-20T00:49:50.327Z,2.20
2022-10-20T00:52:53.181Z,2.40
2022-10-20T00:55:56.668Z,2.20
2022-10-20T00:58:59.972Z,1.90
2022-10-20T01:02:02.563Z,1.83
2022-10-20T01:05:05.151Z,2.57
2022-10-20T01:08:06.795Z,2.10
2022-10-20T01:11:31.490Z,2.30
2022-10-20T01:14:56.934Z,2.00
2022-10-20T01:18:11.313Z,2.30
2022-10-20T01:21:27.678Z,2.27
2022-10-20T01:24:44.546Z,2.03
2022-10-20T01:27:51.360Z,1.70
2022-10-20T01:31:11.542Z,2.20
2022-10-20T01:34:28.041Z,1.90
2022-10-20T01:37:48.450Z,2.30
2022-10-20T01:41:14.040Z,1.90
2022-10-20T01:44:18.496Z,2.20
2022-10-20T01:47:22.299Z,2.27
2022-10-20T01:50:24.495Z,2.23
2022-10-20T01:53:26.348Z,2.13
2022-10-20T01:56:47.153Z,1.93
2022-10-20T02:00:16.362Z,2.20
2022-10-20T02:03:30.820Z,2.30
2022-10-20T02:06:45.603Z,2.63
2022-10-20T02:13:07.079Z,2.37
2022-10-20T02:16:14.856Z,2.20
2022-10-20T02:19:19.824Z,2.80
2022-10-20T02:22:23.209Z,2.60
2022-10-20T02:25:25.869Z,2.27
2022-10-20T02:28:28.712Z,2.43
2022-10-20T02:31:30.981Z,2.10
2022-10-20T02:34:32.817Z,2.67
2022-10-20T02:37:34.695Z,2.63
2022-10-20T02:40:36.618Z,2.77
2022-10-20T02:43:38.573Z,2.33
2022-10-20T02:46:40.244Z,2.50
2022-10-20T02:49:41.896Z,2.80
2022-10-20T02:52:43.552Z,2.97
2022-10-20T02:55:45.524Z,2.63
2022-10-20T02:58:47.188Z,3.03
2022-10-20T03:01:48.978Z,2.73
2022-10-20T03:04:50.676Z,3.10
2022-10-20T03:07:52.702Z,3.03
2022-10-20T03:10:54.424Z,3.23
2022-10-20T03:13:56.075Z,2.73
2022-10-20T03:16:57.749Z,2.90
2022-10-20T03:19:59.455Z,3.30
2022-10-20T03:23:01.111Z,3.40
2022-10-20T03:26:07.885Z,3.50
2022-10-20T03:29:09.567Z,3.27
2022-10-20T03:32:11.267Z,3.10
2022-10-20T03:35:12.946Z,3.27
2022-10-20T03:38:14.616Z,3.07
2022-10-20T03:41:16.323Z,3.93
2022-10-20T03:44:17.965Z,3.07
2022-10-20T03:47:19.682Z,3.20
2022-10-20T03:50:21.359Z,3.00
2022-10-20T03:53:23.208Z,3.13
2022-10-20T03:56:24.896Z,3.13
2022-10-20T03:59:29.534Z,3.80
2022-10-20T04:02:38.767Z,3.30
2022-10-20T04:05:41.428Z,3.43
2022-10-20T04:08:43.202Z,4.17
2022-10-20T04:11:44.911Z,3.47
2022-10-20T04:14:47.552Z,4.07
2022-10-20T04:17:49.217Z,3.90
2022-10-20T04:20:50.871Z,4.27
2022-10-20T04:23:52.845Z,3.97
2022-10-20T04:26:54.617Z,4.20
2022-10-20T04:29:56.274Z,3.90
2022-10-20T04:32:57.984Z,4.23
2022-10-20T04:36:05.508Z,3.87
2022-10-20T04:39:08.073Z,4.33
2022-10-20T04:42:09.728Z,3.93
2022-10-20T04:45:11.425Z,4.80
2022-10-20T04:48:13.101Z,4.83
2022-10-20T04:51:16.196Z,4.20
2022-10-20T04:54:17.925Z,4.67
2022-10-20T04:57:19.629Z,4.13
2022-10-20T05:00:21.309Z,4.90
2022-10-20T05:03:22.969Z,4.80
2022-10-20T05:06:27.148Z,5.00
2022-10-20T05:09:29.089Z,5.00
2022-10-20T05:12:30.901Z,4.70
2022-10-20T05:15:32.573Z,4.13
2022-10-20T05:18:35.013Z,5.17
2022-10-20T05:21:37.137Z,4.93
2022-10-20T05:24:38.856Z,4.87
2022-10-20T05:27:40.541Z,5.20
2022-10-20T05:33:51.220Z,5.20
2022-10-20T05:36:54.240Z,4.33
2022-10-20T05:39:55.937Z,4.60
2022-10-20T05:42:57.727Z,4.93
2022-10-20T05:45:59.386Z,5.23
2022-10-20T05:49:02.871Z,4.10
2022-10-20T05:52:04.579Z,4.50
2022-10-20T05:55:06.844Z,4.70
2022-10-20T05:58:08.490Z,5.10
2022-10-20T06:01:21.390Z,5.07
2022-10-20T06:04:23.910Z,5.40
2022-10-20T06:07:25.725Z,5.00
2022-10-20T06:10:27.465Z,5.23
2022-10-20T06:13:30.359Z,4.93
2022-10-20T06:16:32.762Z,5.10
2022-10-20T06:19:34.405Z,5.10
2022-10-20T06:22:36.421Z,5.17
2022-10-20T06:25:38.209Z,5.63
2022-10-20T06:28:41.422Z,5.57
2022-10-20T06:31:51.140Z,4.57
2022-10-20T06:34:54.069Z,4.90
2022-10-20T06:37:55.707Z,4.97
2022-10-20T06:41:00.404Z,5.83
2022-10-20T06:44:02.315Z,5.83
2022-10-20T06:47:07.407Z,6.07
2022-10-20T06:50:09.418Z,5.83
2022-10-20T06:53:12.288Z,5.67
2022-10-20T06:56:19.050Z,5.60
2022-10-20T06:59:20.691Z,5.53
2022-10-20T07:02:22.341Z,4.77
2022-10-20T07:05:24.029Z,5.47
2022-10-20T07:08:29.438Z,6.03
2022-10-20T07:11:32.086Z,5.90
2022-10-20T07:14:37.171Z,5.50
2022-10-20T07:17:38.817Z,4.97
2022-10-20T07:20:40.457Z,5.07
2022-10-20T07:23:42.729Z,4.97
2022-10-20T07:26:44.498Z,5.10
2022-10-20T07:29:46.143Z,4.73
2022-10-20T07:32:47.785Z,4.70
2022-10-20T07:35:50.037Z,4.97
2022-10-20T07:38:53.386Z,4.90
2022-10-20T07:41:55.243Z,5.20
2022-10-20T07:44:56.963Z,4.97
2022-10-20T07:47:59.361Z,5.40
2022-10-20T07:51:28.885Z,5.23
2022-10-20T07:54:31.641Z,4.93
2022-10-20T07:57:33.311Z,5.10
2022-10-20T08:00:35.138Z,4.90
2022-10-20T08:03:37.181Z,5.63
2022-10-20T08:06:39.549Z,5.13
2022-10-20T08:09:41.871Z,5.60
2022-10-20T08:12:43.597Z,5.10
2022-10-20T08:15:49.168Z,5.13
2022-10-20T08:19:08.475Z,5.33
2022-10-20T08:22:10.638Z,5.00
2022-10-20T08:25:15.016Z,5.07
2022-10-20T08:28:16.669Z,6.00
2022-10-20T08:31:18.931Z,6.33
2022-10-20T08:34:20.595Z,6.07
2022-10-20T08:37:22.378Z,5.87
2022-10-20T08:40:27.727Z,5.17
2022-10-20T08:43:31.756Z,5.03
2022-10-20T08:46:37.047Z,5.77
2022-10-20T08:49:38.743Z,5.63
2022-10-20T08:52:41.891Z,5.17
2022-10-20T08:55:45.034Z,5.43
2022-10-20T08:58:46.849Z,5.97
2022-10-20T09:01:48.802Z,5.57
2022-10-20T09:04:55.387Z,5.50
2022-10-20T09:07:57.742Z,5.10
2022-10-20T09:10:59.672Z,5.07
2022-10-20T09:14:01.372Z,4.77
2022-10-20T09:17:05.289Z,4.57
2022-10-20T09:20:22.886Z,4.70
2022-10-20T09:23:42.428Z,5.07
2022-10-20T09:27:02.174Z,5.03
2022-10-20T09:30:22.421Z,4.90
2022-10-20T09:33:34.950Z,4.80
2022-10-20T09:36:37.080Z,4.47
2022-10-20T09:39:56.203Z,4.50
2022-10-20T09:43:11.422Z,4.33
2022-10-20T09:46:20.353Z,4.97
2022-10-20T09:49:35.243Z,4.20
2022-10-20T09:52:47.464Z,4.80
2022-10-20T09:55:50.848Z,4.33
2022-10-20T09:58:52.891Z,4.60
2022-10-20T10:01:58.912Z,4.77
2022-10-20T10:05:19.850Z,4.07
2022-10-20T10:08:23.939Z,4.17
2022-10-20T10:11:36.497Z,4.90
2022-10-20T10:14:48.141Z,4.57
2022-10-20T10:17:50.930Z,4.80
2022-10-20T10:21:02.126Z,5.03
2022-10-20T10:24:04.770Z,4.77
2022-10-20T10:27:19.755Z,5.17
2022-10-20T10:30:27.283Z,4.47
2022-10-20T10:33:29.571Z,5.27
2022-10-20T10:36:34.491Z,4.63
2022-10-20T10:39:36.371Z,5.00
2022-10-20T10:42:52.976Z,4.60
2022-10-20T10:46:07.188Z,4.40
2022-10-20T10:49:43.436Z,5.17
2022-10-20T10:53:07.317Z,5.13
2022-10-20T10:56:32.693Z,4.47
2022-10-20T10:59:42.465Z,4.67
2022-10-20T11:03:22.773Z,4.90
2022-10-20T11:06:47.419Z,4.77
2022-10-20T11:09:59.921Z,4.93
2022-10-20T11:13:13.445Z,5.13
2022-10-20T11:16:35.465Z,5.03
2022-10-20T11:20:12.734Z,4.53
2022-10-20T11:26:40.400Z,4.93
2022-10-20T11:29:50.976Z,5.40
2022-10-20T11:32:56.519Z,5.90
2022-10-20T11:36:06.667Z,5.90
2022-10-20T11:39:17.953Z,5.53
2022-10-20T11:42:37.626Z,6.00
2022-10-20T11:45:45.097Z,5.60
2022-10-20T11:48:52.654Z,5.47
2022-10-20T11:52:21.441Z,5.57
2022-10-20T11:55:37.391Z,5.77
2022-10-20T11:58:57.637Z,6.90
2022-10-20T12:02:19.088Z,6.90
2022-10-20T12:05:42.631Z,5.80
2022-10-20T12:09:06.019Z,6.17
2022-10-20T12:12:21.396Z,6.50
2022-10-20T12:15:25.614Z,6.60
2022-10-20T12:18:32.935Z,7.03
2022-10-20T12:21:54.261Z,6.73
2022-10-20T12:24:55.881Z,7.07
2022-10-20T12:28:19.684Z,7.17
2022-10-20T12:31:21.389Z,6.33
2022-10-20T12:34:24.260Z,6.27
2022-10-20T12:37:33.606Z,5.80
2022-10-20T12:40:47.429Z,6.80
2022-10-20T12:43:52.087Z,7.00
2022-10-20T12:46:57.979Z,10.87
2022-10-20T12:50:08.340Z,11.00
2022-10-20T12:53:26.670Z,10.57
2022-10-20T12:56:35.152Z,9.23
2022-10-20T12:59:38.966Z,8.70
2022-10-20T13:02:45.796Z,8.47
2022-10-20T13:05:48.525Z,8.80
2022-10-20T13:09:05.972Z,8.10
2022-10-20T13:12:28.895Z,7.50
2022-10-20T13:15:56.912Z,8.33
2022-10-20T13:18:59.647Z,8.27
2022-10-20T13:22:25.464Z,6.93
2022-10-20T13:25:33.669Z,7.60
2022-10-20T13:28:35.336Z,7.83
2022-10-20T13:32:11.325Z,7.93
2022-10-20T13:35:35.872Z,7.70
2022-10-20T13:38:51.619Z,7.90
2022-10-20T13:41:58.054Z,8.93
2022-10-20T13:45:44.900Z,7.63
2022-10-20T13:49:25.367Z,7.17
2022-10-20T13:52:30.904Z,8.70
2022-10-20T13:56:08.070Z,9.67
2022-10-20T13:59:18.540Z,9.63
2022-10-20T14:02:26.925Z,9.00
2022-10-20T14:05:35.788Z,9.13
2022-10-20T14:08:43.998Z,8.80
2022-10-20T14:11:49.761Z,8.60
2022-10-20T14:14:51.730Z,8.37
2022-10-20T14:18:05.301Z,8.57
2022-10-20T14:21:18.514Z,8.97
2022-10-20T14:24:27.160Z,8.60
2022-10-20T14:27:31.132Z,8.37
2022-10-20T14:30:34.546Z,7.83
2022-10-20T14:33:43.595Z,8.53
2022-10-20T14:36:46.186Z,7.93
2022-10-20T14:39:50.601Z,7.77
2022-10-20T14:42:52.575Z,7.77
2022-10-20T14:45:59.949Z,7.23
2022-10-20T14:49:02.197Z,7.60
2022-10-20T14:52:21.928Z,8.93
2022-10-20T14:55:34.668Z,7.87
2022-10-20T14:58:57.645Z,8.27
2022-10-20T15:02:14.075Z,7.93
2022-10-20T15:05:31.006Z,8.60
2022-10-20T15:08:32.726Z,7.70
2022-10-20T15:11:38.664Z,7.23
2022-10-20T15:14:43.827Z,7.50
2022-10-20T15:17:47.770Z,8.00
2022-10-20T15:20:54.040Z,8.00
2022-10-20T15:23:55.668Z,8.33
2022-10-20T15:26:57.963Z,7.37
2022-10-20T15:29:59.601Z,7.60
2022-10-20T15:33:01.299Z,8.10
2022-10-20T15:36:03.164Z,7.90
2022-10-20T15:39:05.531Z,8.70
2022-10-20T15:42:11.248Z,8.03
2022-10-20T15:45:21.686Z,8.60
2022-10-20T15:48:26.898Z,9.33
2022-10-20T15:51:31.565Z,8.40
2022-10-20T15:54:33.183Z,8.30
2022-10-20T15:57:35.127Z,9.00
2022-10-20T16:00:37.583Z,7.80
2022-10-20T16:03:41.219Z,9.30
2022-10-20T16:06:43.587Z,9.60
2022-10-20T16:09:45.203Z,9.87
2022-10-20T16:12:47.078Z,8.77
2022-10-20T16:15:48.779Z,10.20
2022-10-20T16:18:50.457Z,8.77
2022-10-20T16:21:52.123Z,8.87
2022-10-20T16:24:53.956Z,9.07
2022-10-20T16:27:55.625Z,9.17
2022-10-20T16:31:12.199Z,8.13
2022-10-20T16:34:13.927Z,8.90
2022-10-20T16:37:15.789Z,9.47
2022-10-20T16:40:17.503Z,8.77
2022-10-20T16:43:19.164Z,7.60
2022-10-20T16:46:21.086Z,8.83
2022-10-20T16:49:22.856Z,9.37
2022-10-20T16:52:24.521Z,8.20
2022-10-20T16:55:26.189Z,9.03
2022-10-20T16:58:28.325Z,9.13
2022-10-20T17:01:30.128Z,8.83
2022-10-20T17:04:31.978Z,9.63
2022-10-20T17:07:33.666Z,12.93
2022-10-20T17:10:38.018Z,12.17
2022-10-20T17:13:40.577Z,10.93
2022-10-20T17:16:42.416Z,11.20
2022-10-20T17:19:44.857Z,10.57
2022-10-20T17:22:46.544Z,9.97
2022-10-20T17:25:48.817Z,9.67
2022-10-20T17:28:53.038Z,9.83
2022-10-20T17:31:54.691Z,9.63
2022-10-20T17:34:56.337Z,10.33
2022-10-20T17:37:59.884Z,9.97
2022-10-20T17:41:07.152Z,8.97
2022-10-20T17:44:10.032Z,8.87
2022-10-20T17:47:11.708Z,10.00
2022-10-20T17:50:13.368Z,11.23
2022-10-20T17:53:15.050Z,13.13
2022-10-20T17:56:23.121Z,13.17
2022-10-20T17:59:25.420Z,12.93
2022-10-20T18:02:27.085Z,10.37
2022-10-20T18:05:28.763Z,11.63
2022-10-20T18:08:30.424Z,10.87
2022-10-20T18:11:33.905Z,10.77
2022-10-20T18:14:35.858Z,11.27
2022-10-20T18:17:37.512Z,10.70
2022-10-20T18:20:39.174Z,10.97
2022-10-20T18:23:43.580Z,10.50
2022-10-20T18:26:45.759Z,9.10
2022-10-20T18:29:47.427Z,9.23
2022-10-20T18:32:49.055Z,10.10
2022-10-20T18:35:50.736Z,10.10
2022-10-20T18:38:55.716Z,10.00
2022-10-20T18:41:58.028Z,10.23
2022-10-20T18:45:00.039Z,10.43
2022-10-20T18:48:01.696Z,11.63
2022-10-20T18:51:05.316Z,11.47
2022-10-20T18:54:08.981Z,10.33
2022-10-20T18:57:10.625Z,10.60
2022-10-20T19:00:12.885Z,10.90
2022-10-20T19:03:14.521Z,11.90
2022-10-20T19:06:24.710Z,10.80
2022-10-20T19:09:26.387Z,10.33
2022-10-20T19:12:28.027Z,9.93
2022-10-20T19:15:29.669Z,9.87
2022-10-20T19:18:31.348Z,10.00
2022-10-20T19:21:33.737Z,9.93
2022-10-20T19:24:39.662Z,8.93
2022-10-20T19:27:41.368Z,9.80
2022-10-20T19:30:43.037Z,9.53
2022-10-20T19:33:45.930Z,9.07
2022-10-20T19:36:48.857Z,9.20
2022-10-20T19:39:50.564Z,8.40
2022-10-20T19:42:52.251Z,7.90
2022-10-20T19:45:53.927Z,8.77
2022-10-20T19:48:57.231Z,8.37
2022-10-20T19:51:58.981Z,7.50
2022-10-20T19:55:01.209Z,6.40
2022-10-20T19:58:03.245Z,7.37
2022-10-20T20:01:05.996Z,7.83
2022-10-20T20:04:07.829Z,6.90
2022-10-20T20:07:09.577Z,7.97
2022-10-20T20:10:11.380Z,8.60
2022-10-20T20:13:13.024Z,9.23
2022-10-20T20:16:14.695Z,7.53
2022-10-20T20:19:17.254Z,9.47
2022-10-20T20:22:18.915Z,7.83
2022-10-20T20:25:20.613Z,8.97
2022-10-20T20:28:22.251Z,8.90
2022-10-20T20:31:24.599Z,8.50
2022-10-20T20:34:26.296Z,8.73
2022-10-20T20:37:28.022Z,8.20
2022-10-20T20:40:29.708Z,9.03
2022-10-20T20:43:31.846Z,8.87
2022-10-20T20:46:33.994Z,8.07
2022-10-20T20:49:35.689Z,8.50
2022-10-20T20:52:37.343Z,9.80
2022-10-20T20:55:39.005Z,8.50
2022-10-20T20:58:42.020Z,7.40
2022-10-20T21:01:45.042Z,7.93
2022-10-20T21:04:46.693Z,8.00
2022-10-20T21:07:48.308Z,8.40
2022-10-20T21:10:49.969Z,7.63
2022-10-20T21:13:53.939Z,7.80
2022-10-20T21:16:56.104Z,7.63
2022-10-20T21:19:57.739Z,8.30
2022-10-20T21:22:59.365Z,6.77
2022-10-20T21:26:01.017Z,7.17
2022-10-20T21:29:03.249Z,8.40
2022-10-20T21:32:05.091Z,7.70
2022-10-20T21:35:07.056Z,7.83
2022-10-20T21:38:08.702Z,8.00
2022-10-20T21:41:16.017Z,7.50
2022-10-20T21:44:17.784Z,8.47
2022-10-20T21:47:19.463Z,8.07
2022-10-20T21:50:21.165Z,7.80
2022-10-20T21:53:22.799Z,8.73
2022-10-20T21:56:24.866Z,8.17
2022-10-20T21:59:28.964Z,7.87
2022-10-20T22:02:31.125Z,7.83
2022-10-20T22:05:32.774Z,7.40
2022-10-20T22:08:36.236Z,7.20
2022-10-20T22:11:42.235Z,7.07
2022-10-20T22:14:46.489Z,7.33
2022-10-20T22:17:48.968Z,7.27
2022-10-20T22:20:50.738Z,7.70
2022-10-20T22:23:54.557Z,6.83
2022-10-20T22:26:56.289Z,6.40
2022-10-20T22:29:57.949Z,6.87
2022-10-20T22:32:59.965Z,6.90
2022-10-20T22:36:02.377Z,6.80
2022-10-20T22:39:04.571Z,7.70
2022-10-20T22:42:06.368Z,6.23
2022-10-20T22:45:08.942Z,7.03
2022-10-20T22:48:10.604Z,6.63
2022-10-20T22:51:12.787Z,6.60
2022-10-20T22:54:14.429Z,7.30
2022-10-20T22:57:16.116Z,7.17
2022-10-20T23:00:19.440Z,7.00
2022-10-20T23:03:21.088Z,8.63
2022-10-20T23:06:25.723Z,7.93
2022-10-20T23:09:27.789Z,7.50
2022-10-20T23:12:30.147Z,7.97
2022-10-20T23:15:31.803Z,7.27
2022-10-20T23:18:33.913Z,7.50
2022-10-20T23:21:35.587Z,9.40
2022-10-20T23:24:37.237Z,14.43
2022-10-20T23:27:39.390Z,12.27
2022-10-20T23:30:41.226Z,11.17
2022-10-20T23:33:44.380Z,9.47
2022-10-20T23:36:46.031Z,8.67
2022-10-20T23:39:47.682Z,8.03
2022-10-20T23:42:49.319Z,7.93
2022-10-20T23:45:51.061Z,7.73
2022-10-20T23:48:52.751Z,8.90
2022-10-20T23:51:54.437Z,8.10
2022-10-20T23:54:56.179Z,7.33
2022-10-20T23:57:57.822Z,7.97
